createdAt,value
2023-05-20T00:00:11.728Z,16.83
2023-05-20T00:02:32.040Z,17.30
2023-05-20T00:04:33.562Z,13.70
2023-05-20T00:06:38.228Z,15.02
2023-05-20T00:08:42.363Z,17.90
2023-05-20T00:12:50.827Z,14.80
2023-05-20T00:14:53.827Z,16.25
2023-05-20T00:16:59.918Z,17.27
2023-05-20T00:19:04.489Z,13.10
2023-05-20T00:21:09.073Z,14.30
2023-05-20T00:23:28.841Z,14.80
2023-05-20T00:27:34.590Z,14.35
2023-05-20T00:31:39.965Z,15.20
2023-05-20T00:33:41.583Z,19.63
2023-05-20T00:35:43.055Z,14.43
2023-05-20T00:37:47.499Z,14.48
2023-05-20T00:39:49.069Z,13.85
2023-05-20T00:41:50.516Z,12.75
2023-05-20T00:43:55.658Z,14.57
2023-05-20T00:46:03.036Z,14.93
2023-05-20T00:48:07.641Z,19.33
2023-05-20T00:50:11.748Z,15.75
2023-05-20T00:52:32.748Z,19.48
2023-05-20T00:54:36.795Z,19.65
2023-05-20T00:56:41.848Z,24.08
2023-05-20T00:58:43.395Z,19.40
2023-05-20T01:00:45.072Z,18.95
2023-05-20T01:02:49.675Z,20.45
2023-05-20T01:04:57.651Z,19.23
2023-05-20T01:07:01.012Z,20.65
2023-05-20T01:09:02.628Z,18.15
2023-05-20T01:11:08.243Z,18.70
2023-05-20T01:13:15.383Z,16.35
2023-05-20T01:15:17.838Z,19.33
2023-05-20T01:17:20.987Z,15.30
2023-05-20T01:19:29.815Z,18.43
2023-05-20T01:21:34.285Z,14.65
2023-05-20T01:23:40.091Z,21.42
2023-05-20T01:25:44.227Z,19.77
2023-05-20T01:28:04.653Z,15.02
2023-05-20T01:30:29.798Z,18.08
2023-05-20T01:32:42.855Z,16.05
2023-05-20T01:35:03.076Z,15.55
2023-05-20T01:37:08.284Z,17.98
2023-05-20T01:39:09.784Z,13.95
2023-05-20T01:41:14.512Z,15.95
2023-05-20T01:43:18.855Z,13.52
2023-05-20T01:45:23.743Z,16.40
2023-05-20T01:47:25.684Z,19.52
2023-05-20T01:49:30.261Z,16.17
2023-05-20T01:51:35.325Z,15.05
2023-05-20T01:53:38.705Z,14.85
2023-05-20T01:55:45.011Z,15.20
2023-05-20T01:57:48.698Z,14.65
2023-05-20T01:59:57.011Z,12.45
2023-05-20T02:02:03.107Z,10.50
2023-05-20T02:04:10.182Z,9.18
2023-05-20T02:06:16.025Z,8.90
2023-05-20T02:08:22.193Z,7.50
2023-05-20T02:10:26.703Z,8.18
2023-05-20T02:12:35.632Z,9.48
2023-05-20T02:14:40.125Z,11.13
2023-05-20T02:17:00.128Z,11.10
2023-05-20T02:21:05.584Z,15.77
2023-05-20T02:23:10.220Z,14.50
2023-05-20T02:25:11.905Z,16.60
2023-05-20T02:27:17.894Z,13.50
2023-05-20T02:29:24.074Z,16.25
2023-05-20T02:31:28.229Z,12.27
2023-05-20T02:33:29.748Z,14.55
2023-05-20T02:35:49.881Z,12.13
2023-05-20T02:37:53.885Z,14.90
2023-05-20T02:39:58.232Z,13.23
2023-05-20T02:41:59.758Z,13.80
2023-05-20T02:44:19.574Z,20.65
2023-05-20T02:46:21.400Z,17.95
2023-05-20T02:48:41.658Z,20.13
2023-05-20T02:50:44.486Z,21.48
2023-05-20T02:52:47.251Z,22.50
2023-05-20T02:54:53.597Z,21.30
2023-05-20T02:56:57.377Z,21.17
2023-05-20T02:59:00.269Z,23.10
2023-05-20T03:01:02.413Z,21.35
2023-05-20T03:03:04.356Z,19.05
2023-05-20T03:05:07.588Z,24.33
2023-05-20T03:07:11.403Z,18.00
2023-05-20T03:09:14.255Z,20.75
2023-05-20T03:11:16.726Z,20.92
2023-05-20T03:13:38.283Z,19.40
2023-05-20T03:15:46.009Z,23.35
2023-05-20T03:18:07.809Z,26.42
2023-05-20T03:20:12.472Z,23.52
2023-05-20T03:22:15.998Z,19.27
2023-05-20T03:24:19.309Z,24.38
2023-05-20T03:26:21.964Z,16.92
2023-05-20T03:28:23.396Z,20.77
2023-05-20T03:30:28.899Z,16.65
2023-05-20T03:32:30.405Z,21.05
2023-05-20T03:36:38.952Z,18.60
2023-05-20T03:38:42.963Z,20.50
2023-05-20T03:40:44.409Z,16.98
2023-05-20T03:42:46.106Z,16.20
2023-05-20T03:44:47.589Z,22.77
2023-05-20T03:46:49.166Z,17.20
2023-05-20T03:48:50.845Z,18.25
2023-05-20T03:50:52.296Z,21.80
2023-05-20T03:52:53.771Z,18.77
2023-05-20T03:54:55.372Z,17.42
2023-05-20T03:57:15.273Z,24.45
2023-05-20T04:01:21.305Z,14.60
2023-05-20T04:03:23.549Z,20.83
2023-05-20T04:05:25.356Z,17.17
2023-05-20T04:07:26.786Z,17.15
2023-05-20T04:09:28.235Z,19.00
2023-05-20T04:11:32.214Z,14.32
2023-05-20T04:15:41.476Z,13.18
2023-05-20T04:17:48.488Z,17.60
2023-05-20T04:19:50.099Z,12.65
2023-05-20T04:21:54.536Z,17.33
2023-05-20T04:23:56.096Z,18.02
2023-05-20T04:26:02.285Z,16.88
2023-05-20T04:28:06.954Z,14.48
2023-05-20T04:30:08.613Z,12.80
2023-05-20T04:32:13.782Z,18.55
2023-05-20T04:34:20.202Z,17.13
2023-05-20T04:36:22.203Z,16.75
2023-05-20T04:38:29.789Z,13.88
2023-05-20T04:40:32.489Z,21.10
2023-05-20T04:42:37.900Z,15.07
2023-05-20T04:44:41.729Z,15.77
2023-05-20T04:46:46.829Z,13.65
2023-05-20T04:48:48.363Z,14.63
2023-05-20T04:50:50.305Z,15.32
2023-05-20T04:52:51.819Z,14.68
2023-05-20T04:55:12.169Z,13.43
2023-05-20T04:57:13.776Z,10.85
2023-05-20T04:59:15.520Z,17.38
2023-05-20T05:01:27.494Z,18.00
2023-05-20T05:03:38.140Z,18.73
2023-05-20T05:06:11.150Z,15.50
2023-05-20T05:08:25.312Z,18.27
2023-05-20T05:10:32.812Z,14.93
2023-05-20T05:12:42.371Z,19.70
2023-05-20T05:14:44.249Z,16.67
2023-05-20T05:17:04.813Z,11.63
2023-05-20T05:19:09.364Z,16.08
2023-05-20T05:21:11.284Z,14.63
2023-05-20T05:23:19.094Z,17.67
2023-05-20T05:25:20.667Z,12.10
2023-05-20T05:27:23.002Z,14.02
2023-05-20T05:29:24.590Z,14.50
2023-05-20T05:31:26.109Z,12.57
2023-05-20T05:33:30.598Z,13.80
2023-05-20T05:35:32.850Z,14.65
2023-05-20T05:37:35.871Z,15.05
2023-05-20T05:39:40.773Z,20.70
2023-05-20T05:41:45.251Z,18.13
2023-05-20T05:43:49.441Z,11.80
2023-05-20T05:45:53.773Z,11.10
2023-05-20T05:47:55.332Z,11.75
2023-05-20T05:50:00.778Z,10.48
2023-05-20T05:52:08.362Z,17.70
2023-05-20T05:54:29.633Z,16.65
2023-05-20T05:56:31.467Z,10.52
2023-05-20T05:58:33.186Z,13.10
2023-05-20T06:00:54.525Z,11.02
2023-05-20T06:02:58.357Z,9.00
2023-05-20T06:05:00.621Z,14.45
2023-05-20T06:07:02.595Z,11.80
2023-05-20T06:09:07.276Z,14.43
2023-05-20T06:11:08.911Z,15.07
2023-05-20T06:13:11.213Z,8.20
2023-05-20T06:15:16.757Z,13.05
2023-05-20T06:17:20.991Z,13.00
2023-05-20T06:19:25.451Z,16.67
2023-05-20T06:21:27.036Z,12.75
2023-05-20T06:23:48.686Z,11.10
2023-05-20T06:25:51.620Z,9.13
2023-05-20T06:27:58.932Z,10.50
2023-05-20T06:30:02.445Z,9.35
2023-05-20T06:32:05.436Z,10.68
2023-05-20T06:34:11.868Z,5.45
2023-05-20T06:36:13.699Z,6.55
2023-05-20T06:38:33.895Z,8.90
2023-05-20T06:40:36.973Z,10.15
2023-05-20T06:42:46.148Z,11.30
2023-05-20T06:44:50.613Z,9.00
2023-05-20T06:46:52.117Z,8.35
2023-05-20T06:48:56.324Z,7.80
2023-05-20T06:50:58.115Z,6.45
2023-05-20T06:53:02.771Z,6.75
2023-05-20T06:55:05.265Z,5.85
2023-05-20T06:57:10.366Z,5.35
2023-05-20T06:59:31.114Z,8.80
2023-05-20T07:01:32.693Z,20.27
2023-05-20T07:03:36.918Z,8.73
2023-05-20T07:05:38.459Z,8.90
2023-05-20T07:07:42.736Z,7.53
2023-05-20T07:10:05.694Z,8.48
2023-05-20T07:12:07.379Z,7.30
2023-05-20T07:14:12.024Z,8.32
2023-05-20T07:16:16.143Z,6.70
2023-05-20T07:18:21.618Z,6.80
2023-05-20T07:20:23.176Z,8.17
2023-05-20T07:22:27.256Z,5.43
2023-05-20T07:24:31.702Z,11.15
2023-05-20T07:26:36.659Z,6.82
2023-05-20T07:28:40.820Z,7.40
2023-05-20T07:31:00.929Z,7.63
2023-05-20T07:33:05.104Z,9.65
2023-05-20T07:35:07.452Z,6.68
2023-05-20T07:37:10.142Z,6.07
2023-05-20T07:39:15.335Z,9.32
2023-05-20T07:41:17.037Z,8.60
2023-05-20T07:43:37.593Z,8.13
2023-05-20T07:45:39.423Z,5.97
2023-05-20T07:47:41.605Z,7.57
2023-05-20T07:49:47.011Z,4.85
2023-05-20T07:51:48.548Z,7.95
2023-05-20T07:53:52.924Z,5.35
2023-05-20T07:55:54.427Z,7.32
2023-05-20T07:57:58.890Z,7.35
2023-05-20T08:00:00.337Z,6.50
2023-05-20T08:02:05.006Z,5.43
2023-05-20T08:04:06.640Z,6.10
2023-05-20T08:06:08.207Z,5.68
2023-05-20T08:08:21.322Z,5.55
2023-05-20T08:10:48.142Z,8.10
2023-05-20T08:12:53.836Z,7.95
2023-05-20T08:15:04.421Z,6.10
2023-05-20T08:17:07.790Z,5.97
2023-05-20T08:19:12.168Z,5.80
2023-05-20T08:21:16.710Z,5.33
2023-05-20T08:23:21.465Z,5.75
2023-05-20T08:25:41.479Z,10.35
2023-05-20T08:27:45.301Z,5.93
2023-05-20T08:29:46.981Z,8.55
2023-05-20T08:31:48.544Z,6.43
2023-05-20T08:33:50.546Z,7.55
2023-05-20T08:35:52.103Z,6.07
2023-05-20T08:37:56.394Z,6.68
2023-05-20T08:39:59.819Z,8.63
2023-05-20T08:42:06.925Z,5.38
2023-05-20T08:44:13.093Z,9.70
2023-05-20T08:46:16.882Z,7.00
2023-05-20T08:48:31.119Z,6.57
2023-05-20T08:50:33.137Z,5.57
2023-05-20T08:52:36.733Z,7.60
2023-05-20T08:54:46.172Z,5.80
2023-05-20T08:56:47.983Z,4.00
2023-05-20T08:58:49.687Z,6.25
2023-05-20T09:00:53.435Z,7.78
2023-05-20T09:03:01.153Z,5.15
2023-05-20T09:05:04.960Z,5.28
2023-05-20T09:07:06.617Z,6.60
2023-05-20T09:09:08.224Z,7.47
2023-05-20T09:11:14.132Z,5.97
2023-05-20T09:13:18.689Z,5.68
2023-05-20T09:15:22.849Z,6.55
2023-05-20T09:17:24.456Z,8.80
2023-05-20T09:19:28.933Z,9.65
2023-05-20T09:21:31.109Z,6.35
2023-05-20T09:23:41.000Z,6.60
2023-05-20T09:25:42.433Z,10.50
2023-05-20T09:27:46.641Z,10.35
2023-05-20T09:29:49.230Z,5.38
2023-05-20T09:31:56.558Z,10.38
2023-05-20T09:33:58.171Z,5.63
2023-05-20T09:36:07.764Z,7.60
2023-05-20T09:38:29.860Z,6.65
2023-05-20T09:40:31.430Z,6.78
2023-05-20T09:42:42.795Z,8.95
2023-05-20T09:44:49.859Z,7.32
2023-05-20T09:46:55.950Z,5.38
2023-05-20T09:49:00.006Z,5.93
2023-05-20T09:51:04.909Z,7.40
2023-05-20T09:53:11.076Z,3.90
2023-05-20T09:55:17.439Z,9.63
2023-05-20T09:57:37.856Z,4.18
2023-05-20T09:59:40.300Z,8.02
2023-05-20T10:01:45.604Z,6.13
2023-05-20T10:03:51.819Z,9.27
2023-05-20T10:06:11.342Z,4.32
2023-05-20T10:08:28.036Z,6.20
2023-05-20T10:10:58.863Z,8.60
2023-05-20T10:13:09.162Z,7.10
2023-05-20T10:15:32.353Z,7.72
2023-05-20T10:17:52.308Z,6.45
2023-05-20T10:20:13.149Z,10.10
2023-05-20T10:22:27.353Z,7.22
2023-05-20T10:24:29.951Z,6.57
2023-05-20T10:26:38.255Z,10.65
2023-05-20T10:28:40.894Z,7.63
2023-05-20T10:30:50.131Z,9.60
2023-05-20T10:33:16.558Z,9.98
2023-05-20T10:35:21.636Z,7.53
2023-05-20T10:37:29.878Z,5.40
2023-05-20T10:39:34.557Z,5.43
2023-05-20T10:41:38.987Z,4.53
2023-05-20T10:43:44.860Z,9.82
2023-05-20T10:45:49.856Z,8.20
2023-05-20T10:47:57.877Z,6.40
2023-05-20T10:50:02.054Z,9.15
2023-05-20T10:52:23.600Z,5.50
2023-05-20T10:54:29.041Z,5.55
2023-05-20T10:56:33.114Z,11.52
2023-05-20T10:58:40.199Z,7.68
2023-05-20T11:00:44.568Z,7.72
2023-05-20T11:02:47.583Z,7.38
2023-05-20T11:04:52.220Z,9.82
2023-05-20T11:06:54.178Z,5.90
2023-05-20T11:08:56.462Z,9.00
2023-05-20T11:11:16.573Z,12.15
2023-05-20T11:13:20.875Z,12.88
2023-05-20T11:15:27.485Z,8.63
2023-05-20T11:18:03.124Z,7.82
2023-05-20T11:20:21.357Z,4.47
2023-05-20T11:22:33.654Z,4.88
2023-05-20T11:24:46.345Z,5.10
2023-05-20T11:27:06.397Z,6.93
2023-05-20T11:29:22.112Z,6.40
2023-05-20T11:31:38.871Z,7.45
2023-05-20T11:34:08.663Z,5.43
2023-05-20T11:36:27.877Z,5.25
2023-05-20T11:38:42.630Z,4.63
2023-05-20T11:40:58.144Z,8.23
2023-05-20T11:43:12.341Z,6.82
2023-05-20T11:45:25.056Z,9.23
2023-05-20T11:47:39.367Z,7.47
2023-05-20T11:49:50.043Z,8.63
2023-05-20T11:52:03.279Z,8.52
2023-05-20T11:54:10.075Z,6.35
2023-05-20T11:56:14.902Z,7.28
2023-05-20T11:58:17.982Z,8.50
2023-05-20T12:00:23.706Z,9.38
2023-05-20T12:02:44.659Z,4.15
2023-05-20T12:04:46.421Z,7.60
2023-05-20T12:06:51.142Z,8.20
2023-05-20T12:08:55.593Z,7.72
2023-05-20T12:10:59.863Z,4.72
2023-05-20T12:13:01.674Z,12.50
2023-05-20T12:15:06.355Z,6.30
2023-05-20T12:17:07.820Z,5.85
2023-05-20T12:19:09.446Z,7.78
2023-05-20T12:21:11.092Z,8.90
2023-05-20T12:23:12.634Z,7.35
2023-05-20T12:25:19.091Z,5.88
2023-05-20T12:27:23.781Z,9.57
2023-05-20T12:29:27.807Z,13.10
2023-05-20T12:31:34.469Z,5.28
2023-05-20T12:33:36.478Z,7.22
2023-05-20T12:35:56.766Z,9.02
2023-05-20T12:38:01.370Z,9.95
2023-05-20T12:40:08.849Z,7.28
2023-05-20T12:42:12.963Z,9.73
2023-05-20T12:44:14.441Z,5.25
2023-05-20T12:46:16.026Z,6.55
2023-05-20T12:48:17.639Z,7.75
2023-05-20T12:50:19.138Z,4.65
2023-05-20T12:52:39.329Z,5.85
2023-05-20T12:54:43.728Z,9.13
2023-05-20T12:56:47.522Z,7.90
2023-05-20T12:58:49.097Z,10.45
2023-05-20T13:00:50.764Z,7.10
2023-05-20T13:02:54.733Z,4.53
2023-05-20T13:04:56.518Z,9.55
2023-05-20T13:06:58.440Z,8.30
2023-05-20T13:09:02.683Z,5.63
2023-05-20T13:11:04.271Z,6.90
2023-05-20T13:13:05.982Z,8.40
2023-05-20T13:15:07.879Z,10.82
2023-05-20T13:17:09.659Z,6.97
2023-05-20T13:19:11.767Z,7.40
2023-05-20T13:21:16.567Z,9.02
2023-05-20T13:23:18.100Z,5.25
2023-05-20T13:25:19.587Z,5.55
2023-05-20T13:27:21.095Z,4.95
2023-05-20T13:29:22.537Z,4.50
2023-05-20T13:31:24.178Z,8.82
2023-05-20T13:33:25.922Z,8.55
2023-05-20T13:35:30.215Z,8.43
2023-05-20T13:37:31.705Z,10.18
2023-05-20T13:39:36.430Z,5.50
2023-05-20T13:41:37.900Z,7.22
2023-05-20T13:43:42.761Z,5.80
2023-05-20T13:45:44.292Z,9.48
2023-05-20T13:47:48.652Z,7.82
2023-05-20T13:49:53.235Z,7.22
2023-05-20T13:51:57.521Z,9.73
2023-05-20T13:54:01.600Z,3.17
2023-05-20T13:56:03.723Z,10.10
2023-05-20T13:58:08.905Z,6.00
2023-05-20T14:00:13.744Z,13.75
2023-05-20T14:02:18.505Z,5.55
2023-05-20T14:04:25.179Z,6.80
2023-05-20T14:06:27.503Z,5.32
2023-05-20T14:08:32.292Z,7.38
2023-05-20T14:10:34.092Z,6.50
2023-05-20T14:12:35.685Z,8.30
2023-05-20T14:14:37.179Z,8.70
2023-05-20T14:16:39.746Z,7.55
2023-05-20T14:18:43.492Z,7.95
2023-05-20T14:20:50.359Z,7.22
2023-05-20T14:22:57.548Z,6.82
2023-05-20T14:25:04.560Z,7.10
2023-05-20T14:27:08.271Z,5.45
2023-05-20T14:29:11.810Z,10.60
2023-05-20T14:31:18.126Z,10.13
2023-05-20T14:33:24.506Z,7.47
2023-05-20T14:35:28.670Z,7.85
2023-05-20T14:37:35.100Z,5.60
2023-05-20T14:39:39.642Z,7.05
2023-05-20T14:41:43.451Z,11.23
2023-05-20T14:43:47.855Z,7.63
2023-05-20T14:45:54.720Z,7.55
2023-05-20T14:47:58.647Z,6.25
2023-05-20T14:50:05.078Z,9.45
2023-05-20T14:52:09.101Z,5.82
2023-05-20T14:54:12.856Z,9.88
2023-05-20T14:56:14.941Z,6.03
2023-05-20T14:58:18.966Z,4.20
2023-05-20T15:00:23.529Z,5.95
2023-05-20T15:02:28.185Z,8.32
2023-05-20T15:04:30.013Z,8.80
2023-05-20T15:06:31.914Z,4.68
2023-05-20T15:08:33.532Z,4.18
2023-05-20T15:10:35.329Z,5.93
2023-05-20T15:12:37.151Z,5.32
2023-05-20T15:14:41.197Z,6.57
2023-05-20T15:16:45.916Z,6.50
2023-05-20T15:18:47.453Z,5.80
2023-05-20T15:20:49.024Z,8.80
2023-05-20T15:22:53.734Z,7.05
2023-05-20T15:24:55.175Z,7.38
2023-05-20T15:26:59.180Z,5.95
2023-05-20T15:29:03.594Z,6.00
2023-05-20T15:31:05.717Z,4.90
2023-05-20T15:33:07.238Z,6.15
2023-05-20T15:35:09.083Z,12.30
2023-05-20T15:37:10.675Z,8.43
2023-05-20T15:39:14.913Z,5.03
2023-05-20T15:41:16.714Z,7.95
2023-05-20T15:43:18.711Z,5.80
2023-05-20T15:45:20.179Z,4.53
2023-05-20T15:47:24.393Z,6.68
2023-05-20T15:49:28.827Z,4.25
2023-05-20T15:51:55.798Z,7.10
2023-05-20T15:54:06.944Z,5.35
2023-05-20T15:56:08.970Z,6.13
2023-05-20T15:58:29.195Z,6.38
2023-05-20T16:00:30.791Z,7.57
2023-05-20T16:02:36.538Z,5.80
2023-05-20T16:04:41.305Z,6.95
2023-05-20T16:06:42.809Z,5.45
2023-05-20T16:08:44.350Z,7.53
2023-05-20T16:10:48.870Z,6.90
2023-05-20T16:12:52.897Z,4.40
2023-05-20T16:14:57.278Z,6.70
2023-05-20T16:16:58.706Z,6.65
2023-05-20T16:19:00.412Z,3.03
2023-05-20T16:21:01.965Z,4.13
2023-05-20T16:23:03.415Z,6.78
2023-05-20T16:25:07.950Z,5.85
2023-05-20T16:27:12.152Z,3.63
2023-05-20T16:29:16.648Z,4.82
2023-05-20T16:31:18.343Z,5.18
2023-05-20T16:33:19.826Z,4.28
2023-05-20T16:35:24.124Z,8.50
2023-05-20T16:37:25.645Z,7.75
2023-05-20T16:39:27.176Z,5.72
2023-05-20T16:41:28.779Z,4.47
2023-05-20T16:43:49.029Z,3.70
2023-05-20T16:45:50.588Z,5.22
2023-05-20T16:48:10.959Z,8.60
2023-05-20T16:50:31.282Z,5.93
2023-05-20T16:52:37.806Z,6.47
2023-05-20T16:56:40.856Z,5.47
2023-05-20T16:58:42.546Z,6.50
2023-05-20T17:00:44.148Z,3.88
2023-05-20T17:02:48.978Z,5.35
2023-05-20T17:04:57.009Z,6.47
2023-05-20T17:06:58.566Z,5.60
2023-05-20T17:09:04.521Z,11.52
2023-05-20T17:11:06.121Z,9.20
2023-05-20T17:13:10.198Z,5.13
2023-05-20T17:15:11.630Z,9.68
2023-05-20T17:17:31.853Z,6.07
2023-05-20T17:19:33.431Z,9.57
2023-05-20T17:21:39.788Z,7.13
2023-05-20T17:23:44.733Z,4.95
2023-05-20T17:26:05.579Z,4.22
2023-05-20T17:28:11.769Z,6.38
2023-05-20T17:30:20.202Z,7.25
2023-05-20T17:32:28.827Z,5.00
2023-05-20T17:34:48.727Z,9.07
2023-05-20T17:36:50.333Z,6.18
2023-05-20T17:38:51.904Z,8.57
2023-05-20T17:40:59.374Z,5.45
2023-05-20T17:43:00.931Z,10.13
2023-05-20T17:45:21.401Z,6.30
2023-05-20T17:47:26.060Z,6.30
2023-05-20T17:49:27.593Z,7.30
2023-05-20T17:51:31.903Z,8.13
2023-05-20T17:53:33.434Z,4.18
2023-05-20T17:55:37.649Z,7.35
2023-05-20T17:57:41.943Z,7.65
2023-05-20T17:59:45.798Z,7.00
2023-05-20T18:01:51.162Z,4.50
2023-05-20T18:03:57.522Z,6.18
2023-05-20T18:06:18.080Z,12.88
2023-05-20T18:08:38.326Z,7.05
2023-05-20T18:10:42.549Z,6.63
2023-05-20T18:12:45.306Z,3.33
2023-05-20T18:14:46.765Z,6.10
2023-05-20T18:16:48.310Z,5.43
2023-05-20T18:18:52.896Z,5.47
2023-05-20T18:21:00.258Z,5.93
2023-05-20T18:23:06.031Z,13.05
2023-05-20T18:25:10.898Z,6.65
2023-05-20T18:27:15.074Z,5.85
2023-05-20T18:29:16.641Z,6.03
2023-05-20T18:31:19.437Z,4.40
2023-05-20T18:33:24.606Z,8.07
2023-05-20T18:35:29.124Z,8.40
2023-05-20T18:37:30.815Z,7.72
2023-05-20T18:39:32.564Z,7.43
2023-05-20T18:41:46.585Z,4.97
2023-05-20T18:43:54.635Z,8.30
2023-05-20T18:45:56.364Z,7.78
2023-05-20T18:48:00.722Z,7.00
2023-05-20T18:50:02.371Z,6.15
2023-05-20T18:52:08.172Z,5.75
2023-05-20T18:54:12.038Z,8.55
2023-05-20T18:56:17.500Z,5.50
2023-05-20T18:58:23.605Z,11.52
2023-05-20T19:00:28.905Z,9.18
2023-05-20T19:02:30.488Z,8.82
2023-05-20T19:04:34.669Z,4.35
2023-05-20T19:06:37.620Z,8.82
2023-05-20T19:08:39.551Z,9.03
2023-05-20T19:10:44.029Z,5.93
2023-05-20T19:12:48.049Z,5.15
2023-05-20T19:14:49.498Z,4.82
2023-05-20T19:16:51.302Z,4.20
2023-05-20T19:18:52.886Z,12.63
2023-05-20T19:20:59.783Z,7.57
2023-05-20T19:23:20.346Z,10.80
2023-05-20T19:25:24.846Z,5.97
2023-05-20T19:27:45.469Z,5.93
2023-05-20T19:29:46.970Z,5.20
2023-05-20T19:31:55.680Z,8.65
2023-05-20T19:34:16.225Z,5.07
2023-05-20T19:36:17.783Z,7.00
2023-05-20T19:38:23.249Z,6.28
2023-05-20T19:40:28.430Z,6.88
2023-05-20T19:42:50.099Z,6.95
2023-05-20T19:44:56.339Z,7.47
2023-05-20T19:46:57.923Z,6.32
2023-05-20T19:49:02.358Z,6.28
2023-05-20T19:51:07.373Z,6.53
2023-05-20T19:53:12.024Z,8.23
2023-05-20T19:55:32.448Z,6.00
2023-05-20T19:57:34.250Z,7.05
2023-05-20T19:59:37.852Z,11.23
2023-05-20T20:01:39.651Z,5.53
2023-05-20T20:03:46.000Z,3.72
2023-05-20T20:05:47.553Z,4.43
2023-05-20T20:07:49.547Z,3.97
2023-05-20T20:10:10.534Z,3.88
2023-05-20T20:12:12.095Z,3.85
2023-05-20T20:14:14.281Z,6.28
2023-05-20T20:16:20.676Z,8.73
2023-05-20T20:18:41.502Z,7.07
2023-05-20T20:20:49.926Z,10.77
2023-05-20T20:22:52.013Z,7.97
2023-05-20T20:24:53.600Z,6.78
2023-05-20T20:26:58.382Z,7.60
2023-05-20T20:29:02.817Z,5.05
2023-05-20T20:31:04.360Z,5.35
2023-05-20T20:33:09.674Z,7.72
2023-05-20T20:35:14.417Z,13.02
2023-05-20T20:37:18.508Z,8.68
2023-05-20T20:39:21.366Z,5.43
2023-05-20T20:41:45.948Z,10.48
2023-05-20T20:43:50.829Z,6.70
2023-05-20T20:45:53.245Z,6.80
2023-05-20T20:48:01.552Z,8.10
2023-05-20T20:50:06.319Z,7.63
2023-05-20T20:52:13.907Z,8.13
2023-05-20T20:54:34.530Z,8.40
2023-05-20T20:56:37.116Z,7.03
2023-05-20T20:58:40.732Z,9.90
2023-05-20T21:00:45.804Z,10.45
2023-05-20T21:02:51.002Z,8.90
2023-05-20T21:04:52.527Z,6.80
2023-05-20T21:06:59.532Z,4.35
2023-05-20T21:09:05.529Z,5.40
2023-05-20T21:11:07.288Z,5.35
2023-05-20T21:13:09.282Z,11.20
2023-05-20T21:15:12.620Z,6.82
2023-05-20T21:17:32.652Z,9.18
2023-05-20T21:21:40.646Z,7.00
2023-05-20T21:23:46.499Z,4.82
2023-05-20T21:25:50.608Z,8.10
2023-05-20T21:27:55.536Z,11.07
2023-05-20T21:29:59.544Z,8.45
2023-05-20T21:32:03.954Z,5.18
2023-05-20T21:34:08.608Z,6.22
2023-05-20T21:36:13.079Z,8.82
2023-05-20T21:38:14.806Z,6.05
2023-05-20T21:40:18.958Z,6.10
2023-05-20T21:42:23.316Z,5.90
2023-05-20T21:44:44.267Z,10.15
2023-05-20T21:46:45.781Z,5.93
2023-05-20T21:48:47.254Z,6.13
2023-05-20T21:50:52.983Z,6.45
2023-05-20T21:52:56.258Z,4.65
2023-05-20T21:54:57.713Z,7.25
2023-05-20T21:59:04.220Z,7.10
2023-05-20T22:01:05.968Z,5.57
2023-05-20T22:03:13.119Z,7.45
2023-05-20T22:05:34.388Z,6.32
2023-05-20T22:07:36.755Z,8.60
2023-05-20T22:09:45.544Z,7.03
2023-05-20T22:11:50.856Z,7.50
2023-05-20T22:13:53.645Z,7.45
2023-05-20T22:15:58.426Z,6.38
2023-05-20T22:18:00.963Z,5.90
2023-05-20T22:20:10.491Z,6.78
2023-05-20T22:22:12.696Z,6.55
2023-05-20T22:24:34.426Z,7.68
2023-05-20T22:26:39.656Z,10.45
2023-05-20T22:28:43.834Z,11.82
2023-05-20T22:30:45.284Z,5.82
2023-05-20T22:33:05.407Z,5.70
2023-05-20T22:35:25.899Z,4.95
2023-05-20T22:37:28.841Z,4.60
2023-05-20T22:39:30.389Z,5.20
2023-05-20T22:41:37.486Z,6.65
2023-05-20T22:43:41.752Z,14.95
2023-05-20T22:45:43.298Z,7.20
2023-05-20T22:47:49.285Z,4.03
2023-05-20T22:49:51.705Z,7.32
2023-05-20T22:51:53.468Z,4.63
2023-05-20T22:53:55.975Z,4.38
2023-05-20T22:56:00.698Z,6.97
2023-05-20T22:58:02.253Z,7.65
2023-05-20T23:00:04.817Z,4.70
2023-05-20T23:02:09.132Z,4.47
2023-05-20T23:04:13.577Z,6.65
2023-05-20T23:06:15.092Z,8.45
2023-05-20T23:08:19.222Z,2.60
2023-05-20T23:10:21.087Z,3.28
2023-05-20T23:12:40.961Z,6.85
2023-05-20T23:15:01.324Z,6.28
2023-05-20T23:17:02.898Z,9.40
2023-05-20T23:19:04.508Z,5.60
2023-05-20T23:21:05.993Z,3.33
2023-05-20T23:23:31.043Z,3.88
2023-05-20T23:25:34.136Z,4.40
2023-05-20T23:27:38.804Z,2.78
2023-05-20T23:29:42.833Z,3.38
2023-05-20T23:31:49.996Z,3.17
2023-05-20T23:34:10.818Z,5.28
2023-05-20T23:36:12.485Z,5.07
2023-05-20T23:38:17.017Z,5.07
2023-05-20T23:40:20.332Z,6.63
2023-05-20T23:42:37.095Z,2.92
2023-05-20T23:44:51.703Z,4.47
2023-05-20T23:47:20.441Z,3.70
2023-05-20T23:49:34.952Z,5.53
2023-05-20T23:51:58.775Z,2.70
2023-05-20T23:54:12.348Z,3.42
2023-05-20T23:56:23.941Z,6.28
2023-05-20T23:58:35.824Z,5.28
